Radium, Texas
Current Conditions -  °F | °C
As of 11:58 AM on Tuesday 21 Oct 2014 (Local Time) from KDYS Reporting Station
Scattered Clouds Scattered Clouds  
Wind Chill: 76°   Ceiling: Unl
Heat Index: 76°   Visibility: 10mi
Dew Point: 55°   Wind: 3mph
Humidity: 49%   Direction: NA
Pressure: 30.11"   Gusts: NA
Location:  32.755°N, 99.9177°W
Report Text: KDYS 211658Z AUTO VRB03KT 10SM SCT044 24/13 A3011 RMK AO2 SLP161 T02440129
Loading
Personal Weather Stations






























Interactive Weather Map
Tropical Storm Tracking
New forecast layout! Learn more

10-Day Weather Forecast

Advertisements
Track Severe Weather on mobile